createdAt,value
2018-06-12T00:00:31.969Z,18.60
2018-06-12T00:03:00.294Z,19.07
2018-06-12T00:05:28.670Z,18.70
2018-06-12T00:07:56.934Z,20.20
2018-06-12T00:10:25.232Z,22.00
2018-06-12T00:12:53.545Z,21.07
2018-06-12T00:15:21.851Z,20.77
2018-06-12T00:17:50.172Z,19.40
2018-06-12T00:20:18.444Z,17.57
2018-06-12T00:22:46.818Z,19.27
2018-06-12T00:25:15.136Z,19.33
2018-06-12T00:27:43.449Z,18.13
2018-06-12T00:30:11.468Z,16.03
2018-06-12T00:32:39.781Z,17.33
2018-06-12T00:35:08.064Z,17.27
2018-06-12T00:37:36.420Z,17.43
2018-06-12T00:40:04.718Z,20.73
2018-06-12T00:42:33.011Z,21.50
2018-06-12T00:45:01.288Z,19.77
2018-06-12T00:47:29.590Z,20.20
2018-06-12T00:49:57.880Z,20.70
2018-06-12T00:52:26.160Z,21.30
2018-06-12T00:54:54.188Z,23.57
2018-06-12T00:57:22.585Z,21.33
2018-06-12T00:59:50.880Z,22.73
2018-06-12T01:02:19.174Z,23.20
2018-06-12T01:04:47.473Z,22.10
2018-06-12T01:07:15.496Z,22.53
2018-06-12T01:09:43.772Z,22.20
2018-06-12T01:12:12.059Z,20.57
2018-06-12T01:14:40.366Z,19.37
2018-06-12T01:17:08.693Z,21.93
2018-06-12T01:19:36.968Z,19.33
2018-06-12T01:22:05.300Z,17.27
2018-06-12T01:24:33.308Z,18.50
2018-06-12T01:27:01.629Z,19.30
2018-06-12T01:29:29.937Z,18.33
2018-06-12T01:31:58.206Z,18.40
2018-06-12T01:34:26.478Z,18.23
2018-06-12T01:36:54.776Z,17.50
2018-06-12T01:39:23.133Z,15.83
2018-06-12T01:41:51.424Z,16.00
2018-06-12T01:44:19.728Z,16.67
2018-06-12T01:46:48.005Z,16.30
2018-06-12T01:49:16.286Z,16.63
2018-06-12T01:51:44.574Z,17.23
2018-06-12T01:54:12.608Z,19.30
2018-06-12T01:56:40.619Z,19.37
2018-06-12T01:59:09.016Z,19.27
2018-06-12T02:01:37.306Z,22.00
2018-06-12T02:04:05.658Z,21.37
2018-06-12T02:06:33.953Z,24.17
2018-06-12T02:09:02.326Z,23.00
2018-06-12T02:11:30.630Z,24.27
2018-06-12T02:13:59.011Z,24.10
2018-06-12T02:16:27.311Z,25.57
2018-06-12T02:18:55.321Z,23.63
2018-06-12T02:21:23.593Z,27.07
2018-06-12T02:23:51.881Z,26.13
2018-06-12T02:26:20.174Z,27.27
2018-06-12T02:28:48.201Z,25.83
2018-06-12T02:31:16.575Z,26.47
2018-06-12T02:33:44.870Z,24.93
2018-06-12T02:36:13.153Z,26.23
2018-06-12T02:38:41.524Z,25.63
2018-06-12T02:41:09.918Z,25.87
2018-06-12T02:43:38.210Z,25.33
2018-06-12T02:46:06.227Z,24.70
2018-06-12T02:48:34.228Z,24.27
2018-06-12T02:51:02.533Z,25.27
2018-06-12T02:53:30.835Z,25.60
2018-06-12T02:55:59.103Z,24.83
2018-06-12T02:58:27.408Z,26.20
2018-06-12T03:00:55.701Z,25.83
2018-06-12T03:03:23.976Z,25.63
2018-06-12T03:05:52.266Z,26.20
2018-06-12T03:08:20.535Z,25.33
2018-06-12T03:10:48.809Z,26.40
2018-06-12T03:13:17.163Z,25.37
2018-06-12T03:15:45.452Z,28.07
2018-06-12T03:18:13.485Z,28.03
2018-06-12T03:20:44.153Z,27.13
2018-06-12T03:23:12.432Z,27.40
2018-06-12T03:25:40.715Z,27.67
2018-06-12T03:28:08.995Z,27.70
2018-06-12T03:30:37.550Z,29.40
2018-06-12T03:33:05.881Z,27.10
2018-06-12T03:35:34.177Z,26.57
2018-06-12T03:38:02.484Z,26.23
2018-06-12T03:40:30.781Z,28.87
2018-06-12T03:42:59.092Z,27.00
2018-06-12T03:45:27.381Z,26.80
2018-06-12T03:47:55.663Z,27.07
2018-06-12T03:50:23.933Z,28.73
2018-06-12T03:52:52.349Z,27.03
2018-06-12T03:55:20.655Z,27.67
2018-06-12T03:57:48.961Z,28.30
2018-06-12T04:00:17.229Z,28.17
2018-06-12T04:02:45.522Z,28.50
2018-06-12T04:05:13.880Z,30.07
2018-06-12T04:07:42.205Z,29.40
2018-06-12T04:10:10.511Z,28.13
2018-06-12T04:12:38.801Z,27.77
2018-06-12T04:15:07.098Z,28.83
2018-06-12T04:17:35.367Z,27.83
2018-06-12T04:20:03.717Z,28.57
2018-06-12T04:22:31.714Z,27.50
2018-06-12T04:25:00.007Z,28.77
2018-06-12T04:27:28.403Z,29.33
2018-06-12T04:29:56.698Z,27.17
2018-06-12T04:32:25.007Z,29.17
2018-06-12T04:34:53.289Z,27.53
2018-06-12T04:37:21.579Z,26.97
2018-06-12T04:39:49.843Z,26.73
2018-06-12T04:42:18.112Z,28.00
2018-06-12T04:44:46.401Z,28.07
2018-06-12T04:47:14.793Z,27.93
2018-06-12T04:49:43.065Z,28.93
2018-06-12T04:52:11.339Z,30.33
2018-06-12T04:54:39.659Z,28.03
2018-06-12T04:57:08.017Z,30.53
2018-06-12T04:59:36.371Z,31.60
2018-06-12T05:02:04.666Z,31.20
2018-06-12T05:04:32.938Z,32.40
2018-06-12T05:07:01.235Z,32.97
2018-06-12T05:09:29.533Z,35.93
2018-06-12T05:11:57.811Z,36.57
2018-06-12T05:14:26.103Z,38.40
2018-06-12T05:16:54.497Z,38.90
2018-06-12T05:19:22.841Z,41.80
2018-06-12T05:21:51.151Z,43.47
2018-06-12T05:24:19.436Z,44.00
2018-06-12T05:26:47.734Z,44.13
2018-06-12T05:29:16.073Z,43.13
2018-06-12T05:31:44.381Z,43.03
2018-06-12T05:34:12.695Z,39.70
2018-06-12T05:36:40.773Z,39.17
2018-06-12T05:39:10.276Z,36.67
2018-06-12T05:41:39.518Z,34.40
2018-06-12T05:44:07.795Z,34.03
2018-06-12T05:46:36.081Z,31.63
2018-06-12T05:49:04.636Z,30.53
2018-06-12T05:51:32.707Z,29.87
2018-06-12T05:54:01.039Z,30.33
2018-06-12T05:56:29.496Z,33.50
2018-06-12T05:58:57.806Z,29.73
2018-06-12T06:01:26.085Z,28.77
2018-06-12T06:03:54.434Z,27.93
2018-06-12T06:06:22.696Z,24.37
2018-06-12T06:08:50.992Z,22.80
2018-06-12T06:11:19.288Z,19.57
2018-06-12T06:13:47.583Z,18.70
2018-06-12T06:16:15.866Z,17.43
2018-06-12T06:18:44.244Z,18.27
2018-06-12T06:21:12.544Z,17.80
2018-06-12T06:23:40.848Z,14.83
2018-06-12T06:26:09.176Z,14.70
2018-06-12T06:28:37.184Z,14.23
2018-06-12T06:31:05.484Z,13.10
2018-06-12T06:33:33.799Z,13.83
2018-06-12T06:36:02.143Z,13.20
2018-06-12T06:38:30.412Z,12.97
2018-06-12T06:40:58.740Z,14.20
2018-06-12T06:43:27.020Z,13.80
2018-06-12T06:45:55.327Z,12.30
2018-06-12T06:48:23.617Z,13.03
2018-06-12T06:50:51.949Z,14.70
2018-06-12T06:53:20.291Z,14.53
2018-06-12T06:55:48.615Z,15.87
2018-06-12T06:58:16.970Z,16.27
2018-06-12T07:00:45.260Z,16.87
2018-06-12T07:03:13.560Z,17.43
2018-06-12T07:05:41.889Z,17.27
2018-06-12T07:08:10.276Z,18.37
2018-06-12T07:10:38.317Z,19.23
2018-06-12T07:13:06.617Z,19.10
2018-06-12T07:15:34.953Z,20.23
2018-06-12T07:18:03.350Z,19.73
2018-06-12T07:20:42.795Z,20.30
2018-06-12T07:23:11.096Z,21.07
2018-06-12T07:25:39.409Z,21.47
2018-06-12T07:28:07.681Z,22.60
2018-06-12T07:30:35.966Z,20.30
2018-06-12T07:33:04.273Z,18.93
2018-06-12T07:35:32.580Z,19.97
2018-06-12T07:38:00.858Z,18.77
2018-06-12T07:40:29.183Z,19.33
2018-06-12T07:42:57.462Z,18.67
2018-06-12T07:45:25.762Z,18.60
2018-06-12T07:47:54.056Z,18.23
2018-06-12T07:50:22.343Z,17.50
2018-06-12T07:52:50.653Z,18.63
2018-06-12T07:55:18.945Z,19.10
2018-06-12T07:57:47.245Z,17.73
2018-06-12T08:00:15.507Z,17.27
2018-06-12T08:02:43.829Z,15.80
2018-06-12T08:05:12.140Z,14.80
2018-06-12T08:07:40.164Z,15.40
2018-06-12T08:10:08.442Z,13.30
2018-06-12T08:12:36.729Z,12.67
2018-06-12T08:15:05.059Z,12.70
2018-06-12T08:17:33.083Z,11.90
2018-06-12T08:20:01.405Z,11.53
2018-06-12T08:22:29.691Z,9.03
2018-06-12T08:24:57.710Z,8.60
2018-06-12T08:27:26.085Z,8.07
2018-06-12T08:29:54.383Z,6.97
2018-06-12T08:32:22.649Z,7.00
2018-06-12T08:34:51.014Z,6.90
2018-06-12T08:37:19.017Z,7.13
2018-06-12T08:39:47.403Z,7.53
2018-06-12T08:42:15.801Z,7.77
2018-06-12T08:44:44.069Z,7.13
2018-06-12T08:47:12.353Z,7.00
2018-06-12T08:49:40.639Z,6.67
2018-06-12T08:52:08.924Z,5.60
2018-06-12T08:54:37.253Z,6.10
2018-06-12T08:57:05.547Z,5.70
2018-06-12T08:59:33.559Z,5.10
2018-06-12T09:02:02.237Z,5.37
2018-06-12T09:04:30.509Z,5.50
2018-06-12T09:06:58.771Z,5.10
2018-06-12T09:09:26.821Z,5.17
2018-06-12T09:11:55.108Z,4.63
2018-06-12T09:14:23.421Z,5.10
2018-06-12T09:16:51.745Z,5.40
2018-06-12T09:19:20.024Z,5.27
2018-06-12T09:21:48.311Z,5.17
2018-06-12T09:24:16.643Z,5.13
2018-06-12T09:26:44.909Z,5.40
2018-06-12T09:29:13.213Z,5.50
2018-06-12T09:31:41.226Z,4.63
2018-06-12T09:34:09.545Z,5.10
2018-06-12T09:36:37.860Z,5.03
2018-06-12T09:39:08.317Z,5.37
2018-06-12T09:41:36.691Z,4.83
2018-06-12T09:44:05.035Z,4.47
2018-06-12T09:46:33.326Z,4.87
2018-06-12T09:49:01.677Z,4.33
2018-06-12T09:51:29.954Z,4.10
2018-06-12T09:53:58.340Z,4.17
2018-06-12T09:56:26.673Z,3.83
2018-06-12T09:58:54.673Z,3.90
2018-06-12T10:01:23.628Z,3.97
2018-06-12T10:03:52.929Z,3.90
2018-06-12T10:06:21.365Z,3.50
2018-06-12T10:08:49.649Z,3.50
2018-06-12T10:11:17.963Z,3.90
2018-06-12T10:13:46.259Z,3.67
2018-06-12T10:16:14.680Z,3.47
2018-06-12T10:18:43.046Z,3.30
2018-06-12T10:21:11.446Z,3.97
2018-06-12T10:23:40.255Z,3.50
2018-06-12T10:26:08.587Z,3.40
2018-06-12T10:28:36.851Z,3.33
2018-06-12T10:31:05.157Z,3.33
2018-06-12T10:33:33.447Z,3.10
2018-06-12T10:36:01.739Z,3.20
2018-06-12T10:38:30.047Z,3.00
2018-06-12T10:40:58.319Z,3.20
2018-06-12T10:43:26.608Z,3.10
2018-06-12T10:45:54.905Z,3.10
2018-06-12T10:48:23.199Z,2.90
2018-06-12T10:50:51.601Z,2.77
2018-06-12T10:53:19.891Z,2.40
2018-06-12T10:55:48.216Z,2.27
2018-06-12T10:58:16.251Z,2.87
2018-06-12T11:00:44.555Z,2.67
2018-06-12T11:03:12.837Z,2.93
2018-06-12T11:05:41.137Z,2.57
2018-06-12T11:08:09.145Z,2.20
2018-06-12T11:10:37.426Z,2.60
2018-06-12T11:13:05.701Z,2.30
2018-06-12T11:15:33.987Z,2.13
2018-06-12T11:18:02.293Z,2.13
2018-06-12T11:20:30.591Z,2.03
2018-06-12T11:22:58.913Z,2.20
2018-06-12T11:25:27.003Z,1.83
2018-06-12T11:27:55.303Z,1.80
2018-06-12T11:30:23.605Z,1.70
2018-06-12T11:32:51.913Z,1.80
2018-06-12T11:35:20.195Z,1.73
2018-06-12T11:37:48.503Z,1.73
2018-06-12T11:40:16.785Z,1.80
2018-06-12T11:42:45.101Z,52.23
2018-06-12T11:45:13.411Z,4.20
2018-06-12T11:47:41.715Z,1.83
2018-06-12T11:50:10.009Z,2.00
2018-06-12T11:52:38.313Z,2.10
2018-06-12T11:55:06.768Z,2.10
2018-06-12T11:57:35.109Z,2.23
2018-06-12T12:00:03.524Z,2.07
2018-06-12T12:02:31.781Z,2.30
2018-06-12T12:05:00.090Z,1.93
2018-06-12T12:07:28.505Z,2.40
2018-06-12T12:09:56.505Z,2.50
2018-06-12T12:12:24.779Z,2.50
2018-06-12T12:14:53.162Z,2.60
2018-06-12T12:17:21.442Z,2.90
2018-06-12T12:19:49.764Z,2.90
2018-06-12T12:22:18.085Z,3.00
2018-06-12T12:24:46.345Z,2.93
2018-06-12T12:27:14.610Z,3.10
2018-06-12T12:29:42.886Z,2.90
2018-06-12T12:32:11.175Z,3.07
2018-06-12T12:34:39.457Z,2.93
2018-06-12T12:37:07.751Z,3.47
2018-06-12T12:39:36.046Z,3.30
2018-06-12T12:42:04.417Z,3.70
2018-06-12T12:44:32.749Z,4.23
2018-06-12T12:47:01.041Z,4.33
2018-06-12T12:49:29.311Z,3.80
2018-06-12T12:51:57.619Z,4.50
2018-06-12T12:54:25.907Z,4.30
2018-06-12T12:56:53.927Z,4.03
2018-06-12T12:59:21.931Z,5.20
2018-06-12T13:01:50.219Z,4.70
2018-06-12T13:04:18.529Z,4.13
2018-06-12T13:06:46.806Z,4.63
2018-06-12T13:09:15.180Z,4.50
2018-06-12T13:11:43.467Z,4.53
2018-06-12T13:14:11.745Z,4.50
2018-06-12T13:16:40.048Z,5.03
2018-06-12T13:19:08.333Z,4.83
2018-06-12T13:21:36.711Z,5.27
2018-06-12T13:24:05.026Z,5.50
2018-06-12T13:26:33.338Z,5.10
2018-06-12T13:29:01.619Z,6.33
2018-06-12T13:31:29.935Z,6.60
2018-06-12T13:33:58.276Z,6.97
2018-06-12T13:36:26.606Z,7.00
2018-06-12T13:38:54.952Z,8.60
2018-06-12T13:41:23.254Z,7.63
2018-06-12T13:43:51.530Z,7.90
2018-06-12T13:46:19.842Z,7.73
2018-06-12T13:48:48.134Z,7.70
2018-06-12T13:51:16.473Z,8.87
2018-06-12T13:53:44.784Z,9.57
2018-06-12T13:56:12.804Z,9.30
2018-06-12T13:58:41.124Z,8.97
2018-06-12T14:01:09.434Z,9.30
2018-06-12T14:03:37.802Z,9.13
2018-06-12T14:06:06.186Z,8.97
2018-06-12T14:08:34.482Z,9.07
2018-06-12T14:11:02.859Z,9.53
2018-06-12T14:13:31.186Z,9.40
2018-06-12T14:15:59.478Z,9.97
2018-06-12T14:18:27.742Z,9.80
2018-06-12T14:20:56.059Z,9.63
2018-06-12T14:23:24.363Z,10.70
2018-06-12T14:25:52.650Z,10.20
2018-06-12T14:28:20.945Z,10.80
2018-06-12T14:30:49.256Z,11.07
2018-06-12T14:33:17.604Z,10.93
2018-06-12T14:35:45.919Z,10.97
2018-06-12T14:38:14.234Z,11.47
2018-06-12T14:40:42.534Z,11.70
2018-06-12T14:43:10.847Z,11.67
2018-06-12T14:45:39.204Z,12.10
2018-06-12T14:48:07.506Z,11.80
2018-06-12T14:50:35.920Z,12.00
2018-06-12T14:53:04.212Z,11.97
2018-06-12T14:55:32.578Z,12.30
2018-06-12T14:58:00.989Z,12.77
2018-06-12T15:00:29.006Z,12.70
2018-06-12T15:02:57.304Z,13.73
2018-06-12T15:05:25.589Z,13.90
2018-06-12T15:07:53.890Z,14.00
2018-06-12T15:10:22.251Z,13.83
2018-06-12T15:12:50.539Z,14.90
2018-06-12T15:15:18.841Z,14.40
2018-06-12T15:17:47.146Z,13.73
2018-06-12T15:20:15.168Z,14.10
2018-06-12T15:22:43.471Z,14.27
2018-06-12T15:25:11.799Z,14.33
2018-06-12T15:27:39.834Z,14.57
2018-06-12T15:30:08.200Z,12.93
2018-06-12T15:32:36.498Z,12.90
2018-06-12T15:35:04.813Z,12.87
2018-06-12T15:37:33.662Z,12.07
2018-06-12T15:40:01.961Z,12.67
2018-06-12T15:42:30.276Z,12.47
2018-06-12T15:44:58.616Z,12.13
2018-06-12T15:47:26.944Z,11.37
2018-06-12T15:49:55.018Z,10.43
2018-06-12T15:52:23.444Z,11.00
2018-06-12T15:54:51.758Z,11.23
2018-06-12T15:57:20.028Z,11.10
2018-06-12T15:59:48.356Z,10.20
2018-06-12T16:02:16.404Z,10.40
2018-06-12T16:04:44.704Z,10.60
2018-06-12T16:07:13.034Z,10.40
2018-06-12T16:09:41.339Z,10.07
2018-06-12T16:12:09.645Z,10.13
2018-06-12T16:14:37.977Z,10.27
2018-06-12T16:17:06.279Z,9.30
2018-06-12T16:19:34.599Z,9.23
2018-06-12T16:22:02.928Z,10.00
2018-06-12T16:24:31.209Z,9.37
2018-06-12T16:26:59.538Z,9.30
2018-06-12T16:29:27.857Z,9.53
2018-06-12T16:31:56.796Z,10.20
2018-06-12T16:34:25.110Z,9.40
2018-06-12T16:36:53.408Z,8.80
2018-06-12T16:39:21.452Z,9.40
2018-06-12T16:41:49.763Z,9.33
2018-06-12T16:44:18.083Z,9.70
2018-06-12T16:46:46.402Z,9.30
2018-06-12T16:49:14.694Z,9.70
2018-06-12T16:51:43.038Z,9.50
2018-06-12T16:54:11.343Z,9.50
2018-06-12T16:56:39.767Z,9.97
2018-06-12T16:59:08.077Z,9.60
2018-06-12T17:01:36.426Z,9.80
2018-06-12T17:04:05.341Z,9.30
2018-06-12T17:06:33.672Z,9.30
2018-06-12T17:09:02.027Z,9.00
2018-06-12T17:11:30.419Z,10.00
2018-06-12T17:13:58.729Z,8.80
2018-06-12T17:16:27.131Z,9.60
2018-06-12T17:18:55.476Z,9.83
2018-06-12T17:21:23.858Z,8.43
2018-06-12T17:23:52.250Z,8.37
2018-06-12T17:26:20.569Z,7.67
2018-06-12T17:28:48.962Z,8.40
2018-06-12T17:31:17.329Z,8.50
2018-06-12T17:33:45.728Z,7.67
2018-06-12T17:36:14.083Z,7.90
2018-06-12T17:38:42.459Z,7.50
2018-06-12T17:41:10.836Z,7.30
2018-06-12T17:43:38.884Z,7.53
2018-06-12T17:46:07.388Z,7.70
2018-06-12T17:48:35.702Z,7.77
2018-06-12T17:51:04.090Z,8.63
2018-06-12T17:53:32.490Z,7.87
2018-06-12T17:56:01.276Z,8.40
2018-06-12T17:58:29.390Z,7.63
2018-06-12T18:00:57.784Z,7.43
2018-06-12T18:03:26.196Z,8.50
2018-06-12T18:05:54.566Z,8.00
2018-06-12T18:08:22.965Z,8.00
2018-06-12T18:10:52.044Z,8.40
2018-06-12T18:13:20.453Z,7.90
2018-06-12T18:15:48.898Z,7.77
2018-06-12T18:18:17.331Z,8.43
2018-06-12T18:20:47.098Z,8.40
2018-06-12T18:23:15.632Z,8.20
2018-06-12T18:25:45.534Z,8.30
2018-06-12T18:28:14.887Z,8.57
2018-06-12T18:30:43.309Z,7.80
2018-06-12T18:33:11.706Z,8.27
2018-06-12T18:35:40.342Z,8.50
2018-06-12T18:38:09.467Z,12.77
2018-06-12T18:40:37.705Z,8.87
2018-06-12T18:43:06.122Z,8.40
2018-06-12T18:45:35.174Z,8.57
2018-06-12T18:48:03.583Z,8.23
2018-06-12T18:50:32.018Z,8.27
2018-06-12T18:53:01.382Z,8.13
2018-06-12T18:55:29.830Z,8.43
2018-06-12T18:57:58.222Z,8.27
2018-06-12T19:00:26.728Z,8.43
2018-06-12T19:02:55.155Z,9.00
2018-06-12T19:05:23.290Z,9.90
2018-06-12T19:07:52.476Z,9.90
2018-06-12T19:10:21.018Z,9.70
2018-06-12T19:12:49.453Z,9.73
2018-06-12T19:15:18.525Z,10.00
2018-06-12T19:17:47.338Z,10.53
2018-06-12T19:20:15.731Z,10.40
2018-06-12T19:22:44.179Z,10.57
2018-06-12T19:25:13.519Z,10.53
2018-06-12T19:27:42.357Z,10.77
2018-06-12T19:30:10.805Z,11.67
2018-06-12T19:32:39.227Z,11.57
2018-06-12T19:35:07.707Z,11.47
2018-06-12T19:37:36.638Z,10.60
2018-06-12T19:40:05.131Z,11.00
2018-06-12T19:42:34.469Z,10.60
2018-06-12T19:45:03.042Z,10.97
2018-06-12T19:47:31.475Z,10.43
2018-06-12T19:49:59.947Z,10.63
2018-06-12T19:52:28.717Z,10.80
2018-06-12T19:54:57.146Z,52.20
2018-06-12T19:57:26.318Z,10.43
2018-06-12T19:59:54.857Z,15.90
2018-06-12T20:02:22.991Z,10.70
2018-06-12T20:04:51.425Z,10.67
2018-06-12T20:07:19.941Z,9.97
2018-06-12T20:09:49.113Z,10.70
2018-06-12T20:12:17.262Z,10.53
2018-06-12T20:14:45.695Z,10.43
2018-06-12T20:17:14.458Z,10.83
2018-06-12T20:19:42.873Z,11.83
2018-06-12T20:22:11.819Z,12.77
2018-06-12T20:24:40.362Z,12.80
2018-06-12T20:27:08.785Z,12.00
2018-06-12T20:29:37.242Z,13.80
2018-06-12T20:32:05.743Z,13.83
2018-06-12T20:34:34.373Z,14.57
2018-06-12T20:37:03.789Z,15.13
2018-06-12T20:39:32.935Z,16.20
2018-06-12T20:42:01.822Z,17.60
2018-06-12T20:44:30.290Z,16.00
2018-06-12T20:46:58.793Z,18.30
2018-06-12T20:49:27.187Z,18.63
2018-06-12T20:51:55.556Z,19.13
2018-06-12T20:54:30.687Z,19.67
2018-06-12T20:56:59.086Z,20.43
2018-06-12T20:59:27.472Z,20.37
2018-06-12T21:01:55.843Z,21.97
2018-06-12T21:04:24.179Z,22.83
2018-06-12T21:06:52.591Z,23.50
2018-06-12T21:09:20.922Z,24.13
2018-06-12T21:11:49.263Z,26.03
2018-06-12T21:14:17.596Z,24.97
2018-06-12T21:16:45.996Z,25.77
2018-06-12T21:19:14.327Z,26.47
2018-06-12T21:21:42.651Z,26.80
2018-06-12T21:24:10.699Z,26.57
2018-06-12T21:26:38.996Z,26.93
2018-06-12T21:29:07.348Z,26.93
2018-06-12T21:31:35.665Z,25.47
2018-06-12T21:34:04.095Z,25.50
2018-06-12T21:36:32.442Z,24.57
2018-06-12T21:39:00.787Z,21.83
2018-06-12T21:41:28.795Z,20.47
2018-06-12T21:43:57.211Z,20.90
2018-06-12T21:46:25.525Z,19.27
2018-06-12T21:48:53.565Z,19.17
2018-06-12T21:51:21.865Z,19.17
2018-06-12T21:53:50.330Z,18.57
2018-06-12T21:56:18.653Z,16.37
2018-06-12T21:58:46.684Z,15.93
2018-06-12T22:01:15.075Z,15.77
2018-06-12T22:03:43.363Z,15.03
2018-06-12T22:06:11.666Z,14.77
2018-06-12T22:08:39.964Z,14.57
2018-06-12T22:11:08.036Z,13.63
2018-06-12T22:13:36.045Z,13.33
2018-06-12T22:16:04.384Z,11.97
2018-06-12T22:18:32.679Z,11.33
2018-06-12T22:21:00.722Z,11.50
2018-06-12T22:23:29.301Z,10.90
2018-06-12T22:25:57.674Z,10.13
2018-06-12T22:28:25.969Z,10.30
2018-06-12T22:30:54.262Z,10.77
2018-06-12T22:33:22.560Z,9.43
2018-06-12T22:35:50.861Z,10.00
2018-06-12T22:38:19.131Z,9.50
2018-06-12T22:40:47.402Z,9.20
2018-06-12T22:43:15.680Z,9.73
2018-06-12T22:45:44.035Z,9.17
2018-06-12T22:48:12.610Z,9.30
2018-06-12T22:50:40.888Z,10.47
2018-06-12T22:53:09.170Z,9.43
2018-06-12T22:55:37.455Z,9.47
2018-06-12T22:58:06.054Z,9.83
2018-06-12T23:00:34.362Z,9.30
2018-06-12T23:03:02.625Z,9.30
2018-06-12T23:05:30.882Z,9.80
2018-06-12T23:07:59.164Z,10.20
2018-06-12T23:10:27.463Z,9.27
2018-06-12T23:12:55.852Z,9.83
2018-06-12T23:15:24.141Z,10.00
2018-06-12T23:17:52.459Z,9.80
2018-06-12T23:20:31.987Z,10.23
2018-06-12T23:23:00.328Z,10.37
2018-06-12T23:25:28.596Z,10.70
2018-06-12T23:27:56.912Z,10.67
2018-06-12T23:30:25.188Z,10.60
2018-06-12T23:32:53.584Z,10.90
2018-06-12T23:35:21.876Z,10.80
2018-06-12T23:37:50.159Z,10.60
2018-06-12T23:40:18.568Z,10.63
2018-06-12T23:42:46.872Z,10.50
2018-06-12T23:45:15.147Z,10.27
2018-06-12T23:47:43.139Z,10.57
2018-06-12T23:50:11.400Z,10.47
2018-06-12T23:52:39.724Z,11.83
2018-06-12T23:55:07.986Z,11.73
2018-06-12T23:57:36.283Z,12.47
